Tiempo atmosférico en la estación meteorológica de Banyalbufar, Illes Balears (60 m.)



Fecha
DESCASC
Temp. máxima en grados centígrados (hora)
DESCASC
Temp. mínima en grados centígrados (hora)
DESCASC
Temp. media en grados centígrados
DESCASC
Racha de viento máxima en m/sg (hora)
DESCASC
Velocidad máxima media en intervalos de 10 minutos(hora)
DESCASC
Precipitaciones diarias en mm
DESCASC
Precipitaciones de 00:00 a 06:00 en mm
DESCASC
Precipitaciones de 06:00 a 12:00 en mm
DESCASC
Precipitaciones de 12:00 a 18:00 en mm
DESCASC
Precipitaciones de 18:00 a 24:00 en mm
DESCASC
16-01-2020 17.4 (15:10) 9.4 (07:10) 13.4 6.39 (23:50) 3.33 (05:50) 0 0 0 0 0
15-01-2020 14.2 (13:00) 9.3 (23:20) 11.8 8.06 (11:40) 4.17 (05:10) 0 0 0 0 0
14-01-2020 15.8 (14:30) 10.7 (08:50) 13.3 13.06 (22:30) 5.28 (22:00) 0 0 0 0 0
13-01-2020 14.7 (15:40) 6.9 (07:10) 10.8 7.5 (23:10) 3.89 (23:10) 0 0 0 0 0
12-01-2020 12.9 (13:50) 7.4 (00:00) 10.1 6.67 (09:40) 3.89 (09:40) 0 0 0 0 0
11-01-2020 13.1 (01:30) 9.9 (00:00) 11.5 15.28 (01:30) 8.33 (04:30) 0 0 0 0 0
10-01-2020 13.5 (11:30) 9 (00:00) 11.3 15.28 (22:20) 9.44 (22:20) 3 0 0 2.8 0.2
09-01-2020 14.3 (14:30) 7.9 (00:00) 11.1 5.83 (23:59) 3.33 (02:50) 0 0 0 0 0
08-01-2020 14.4 (15:40) 8 (00:00) 11.2 7.5 (12:20) 5 (12:20) 0 0 0 0 0
07-01-2020 13.3 (02:40) 8.1 (00:00) 10.7 6.39 (02:50) 4.44 (02:40) 0 0 0 0 0
06-01-2020 14.1 (15:50) 9.1 (00:00) 11.6 6.67 (09:10) 4.44 (08:50) 0 0 0 0 0
05-01-2020 15.6 (15:20) 8.5 (00:00) 12.1 4.72 (10:10) 3.33 (02:10) 0 0 0 0 0
04-01-2020 14.5 (16:00) 8.8 (00:00) 11.7 6.67 (10:20) 4.72 (10:20) 0 0 0 0 0
03-01-2020 14.4 (12:40) 9.8 (00:00) 12.1 6.94 (14:10) 2.78 (12:50) 0 0 0 0 0
02-01-2020 14.3 (15:00) 9.6 (00:00) 12 6.67 (13:50) 3.06 (00:50) 0 0 0 0 0
01-01-2020 16.9 (14:30) 8.9 (00:00) 12.9 4.17 (21:40) 3.33 (03:30) 0 0 0 0 0
31-12-2019 15 (13:30) 9 (00:00) 12 -- (--) -- (--) 0 0 0 0 0
30-12-2019 15.9 (14:00) 9.3 (00:00) 12.6 -- (--) -- (--) 0 0 0 0 0
29-12-2019 14.8 (13:50) 9.5 (00:00) 12.2 5 (12:40) 3.61 (12:40) 0 0 0 0 0
28-12-2019 15.6 (13:50) 9.4 (00:00) 12.5 4.17 (00:20) 3.06 (01:20) 0 0 0 0 0
27-12-2019 15.1 (15:50) 9.8 (00:00) 12.5 5 (10:30) 3.61 (20:00) 0 0 0 0 0
26-12-2019 19.8 (12:30) 11.3 (00:00) 15.5 4.72 (01:20) 3.33 (17:00) 0 0 0 0 0
25-12-2019 19.5 (15:20) 12.4 (00:00) 15.9 4.17 (01:30) 3.33 (02:30) 0 0 0 0 0
24-12-2019 18.4 (15:30) 12.8 (00:00) 15.6 8.61 (00:10) 4.44 (00:20) 0 0 0 0 0
23-12-2019 16.5 (14:20) 13.1 (00:00) 14.8 16.11 (03:00) 12.22 (03:00) 0 0 0 0 0
22-12-2019 18.5 (00:00) 15.7 (00:00) 17.1 21.11 (19:20) 10.28 (19:10) 0 0 0 0 0
21-12-2019 23.1 (14:40) 18.5 (00:00) 20.8 26.11 (23:00) 12.5 (22:50) 1.2 0 0 0 1.2
20-12-2019 21 (23:59) 16.7 (00:00) 18.9 26.67 (05:20) 13.61 (01:50) 1 0 0.6 0 0.4

Gráficas

Temp. máximas Temp. mínimas Temp. medias Precipitaciones Rachas de viento máximas Velocidades máximas media en intervalos de 10 minutos

Datos horarios

Fecha y hora oficial Temperatura (ºC) Velocidad del viento (km/h) Dirección del viento Racha (km/h) Dirección de racha Precipitación (mm) Presión (hPa) Tendencia (hPa) Humedad (%)
2020-01-18 23:00:00 13.6 5 Sur 19 Sudeste 0 -- -- 46
2020-01-18 22:00:00 13.7 10 Sur 22 Sur 0 -- -- 43
2020-01-18 21:00:00 13.4 5 Sur 26 Sudoeste 0 -- -- 39
2020-01-18 20:00:00 14.3 10 Sur 26 Sudoeste 0 -- -- 34
2020-01-18 19:00:00 12.1 8 Sur 17 Sur 0 -- -- 46
2020-01-18 18:00:00 11.5 8 Sur 14 Sur 0 -- -- 49
2020-01-18 17:00:00 12.3 8 Sur 14 Sur 0 -- -- 44
2020-01-18 16:00:00 15.9 4 Sur 9 Sur 0 -- -- 40
2020-01-18 15:00:00 16.7 3 Sudoeste 7 Noroeste 0 -- -- 41
2020-01-18 14:00:00 15 4 Noroeste 10 Noroeste 0 -- -- 44
2020-01-18 13:00:00 14 3 Noroeste 8 Noroeste 0 -- -- 47
2020-01-18 12:00:00 14 4 Sudoeste 8 Oeste 0 -- -- 47
2020-01-18 11:00:00 13.4 6 Sudoeste 10 Sudoeste 0 -- -- 50
2020-01-18 10:00:00 11.2 8 Sur 12 Sur 0 -- -- 57
2020-01-18 09:00:00 10.4 7 Sur 14 Sur 0 -- -- 56
2020-01-18 08:00:00 9 8 Sur 12 Sur 0 -- -- 55
2020-01-18 07:00:00 10.2 8 Sur 13 Sur 0 -- -- 52
2020-01-18 06:00:00 10.6 10 Sur 14 Sur 0 -- -- 53
2020-01-18 05:00:00 10.6 6 Sur 17 Este 0 -- -- 51
2020-01-18 04:00:00 11 9 Sur 18 Sur 0 -- -- 50
2020-01-18 03:00:00 11 10 Sur 17 Sur 0 -- -- 53
2020-01-18 02:00:00 10.6 12 Sur 14 Sur 0 -- -- 53
2020-01-18 01:00:00 11.8 8 Sur 15 Sur 0 -- -- 47
2020-01-18 00:00:00 12.8 5 Sur 15 Sur 0 -- -- 51
2020-01-17 23:00:00 12.5 8 Sur 16 Sudoeste 0 -- -- 55
2020-01-17 22:00:00 14.4 9 Sudoeste 21 Sudoeste 0 -- -- 43
2020-01-17 21:00:00 14.5 6 Sudeste 20 Sur 0 -- -- 46
2020-01-17 20:00:00 14 8 Sudoeste 22 Sudoeste 0 -- -- 55
2020-01-17 19:00:00 13.6 9 Sudoeste 24 Sur 0 -- -- 58
2020-01-17 18:00:00 13.4 15 Sudoeste 24 Sudoeste 0 -- -- 59
2020-01-17 17:00:00 14 8 Sudoeste 24 Oeste 0 -- -- 61
2020-01-17 16:00:00 15.4 10 Oeste 22 Oeste 0 -- -- 54
2020-01-17 15:00:00 15.4 13 Oeste 27 Oeste 0 -- -- 52
2020-01-17 14:00:00 15.2 19 Oeste 33 Oeste 0 -- -- 50
2020-01-17 13:00:00 15.3 14 Oeste 37 Oeste 0 -- -- 44
2020-01-17 12:00:00 15.8 10 Sudoeste 45 Oeste 0 -- -- 39
2020-01-17 11:00:00 15.4 12 Sudoeste 37 Sur 0 -- -- 35
2020-01-17 10:00:00 14.6 12 Sudoeste 33 Sur 0 -- -- 36
2020-01-17 09:00:00 14.5 8 Sudoeste 21 Sur 0 -- -- 39
2020-01-17 08:00:00 14.2 10 Sur 20 Sur 0 -- -- 45
2020-01-17 07:00:00 14.5 9 Sudoeste 30 Sudoeste 0 -- -- 46
2020-01-17 06:00:00 14.3 7 Sudoeste 19 Sudoeste 0 -- -- 44
2020-01-17 05:00:00 12.7 4 Sur 13 Noroeste 0 -- -- 48
2020-01-17 04:00:00 12.9 6 Sudoeste 17 Sudoeste 0 -- -- 53
2020-01-17 03:00:00 11.4 4 Sur 9 Sur 0 -- -- 57
2020-01-17 02:00:00 11.6 6 Sudeste 13 Sur 0 -- -- 59
2020-01-17 01:00:00 11.9 5 Sur 17 Oeste 0 -- -- 56
2020-01-17 00:00:00 14 9 Sur 23 Sudoeste 0 -- -- 47
2020-01-16 23:00:00 13 6 Sur 17 Sur 0 -- -- 53
2020-01-16 22:00:00 12.8 3 Oeste 14 Sudeste 0 -- -- 56
2020-01-16 21:00:00 11.7 5 Sur 13 Sur 0 -- -- 58
2020-01-16 20:00:00 10.3 8 Sur 13 Sur 0 -- -- 61
2020-01-16 19:00:00 10.5 9 Sur 15 Sudoeste 0 -- -- 63
2020-01-16 18:00:00 11.4 10 Sur 12 Sur 0 -- -- 61
2020-01-16 17:00:00 12.6 4 Sur 10 Sur 0 -- -- 58
2020-01-16 16:00:00 15.7 5 Sur 9 Sur 0 -- -- 48
2020-01-16 15:00:00 17 5 Sur 8 Sur 0 -- -- 43
2020-01-16 14:00:00 16.4 3 Sur 7 Sur 0 -- -- 38
2020-01-16 13:00:00 15.9 2 Sudoeste 6 Sur 0 -- -- 36
2020-01-16 12:00:00 15.1 3 Sur 12 Sur 0 -- -- 42
2020-01-16 11:00:00 12.1 10 Sur 15 Sur 0 -- -- 51
2020-01-16 10:00:00 10.4 8 Sur 12 Sur 0 -- -- 53
2020-01-16 09:00:00 10.2 6 Sur 12 Sur 0 -- -- 49
2020-01-16 08:00:00 9.5 11 Sur 14 Sur 0 -- -- 49
2020-01-16 07:00:00 9.5 9 Sur 14 Sur 0 -- -- 48
2020-01-16 06:00:00 9.7 11 Sur 15 Sur 0 -- -- 47
2020-01-16 05:00:00 9.8 12 Sur 15 Sur 0 -- -- 47
2020-01-16 04:00:00 9.6 8 Sur 12 Sur 0 -- -- 50
2020-01-16 03:00:00 9.6 11 Sur 14 Sur 0 -- -- 48
2020-01-16 02:00:00 9.9 11 Sur 13 Sur 0 -- -- 45
2020-01-16 01:00:00 10.3 11 Sur 14 Sur 0 -- -- 48
2020-01-16 00:00:00 9.5 7 Sur 11 Sur 0 -- -- 50
2020-01-15 23:00:00 9.6 7 Sur 11 Sur 0 -- -- 49
2020-01-15 22:00:00 11.7 3 Sur 14 Sudoeste 0 -- -- 48
2020-01-15 21:00:00 10.7 6 Sur 21 Sur 0 -- -- 63
2020-01-15 20:00:00 11.8 8 Sudoeste 16 Oeste 0 -- -- 63
2020-01-15 19:00:00 11.1 8 Sudoeste 17 Sur 0 -- -- 62
2020-01-15 18:00:00 11.8 9 Sudoeste 17 Sudoeste 0 -- -- 61
2020-01-15 17:00:00 12.5 6 Sudoeste 21 Sudoeste 0 -- -- 57
2020-01-15 16:00:00 13.5 9 Oeste 20 Oeste 0 -- -- 52
2020-01-15 15:00:00 13.6 6 Oeste 27 Oeste 0 -- -- 54
2020-01-15 14:00:00 13.9 12 Oeste 28 Sudoeste 0 -- -- 55
2020-01-15 13:00:00 14.2 10 Sudoeste 24 Oeste 0 -- -- 52
2020-01-15 12:00:00 13.9 14 Oeste 29 Oeste 0 -- -- 52
2020-01-15 11:00:00 14.1 4 Oeste 21 Oeste 0 -- -- 46
2020-01-15 10:00:00 12.9 7 Sudoeste 22 Oeste 0 -- -- 54
2020-01-15 09:00:00 12.5 3 Este 15 Este 0 -- -- 57
2020-01-15 08:00:00 11.7 3 Sudeste 26 Oeste 0 -- -- 55
2020-01-15 07:00:00 12.8 10 Sudoeste 25 Oeste 0 -- -- 58
2020-01-15 06:00:00 12.4 5 Sudeste 29 Sur 0 -- -- 58
2020-01-15 05:00:00 12.4 13 Sur 27 Sur 0 -- -- 55
2020-01-15 04:00:00 12 7 Sudoeste 28 Oeste 0 -- -- 52
2020-01-15 03:00:00 12.9 9 Oeste 23 Oeste 0 -- -- 57
2020-01-15 02:00:00 13.1 7 Sudoeste 23 Sudoeste 0 -- -- 57
2020-01-15 01:00:00 13 8 Sudoeste 27 Sudoeste 0 -- -- 53
2020-01-15 00:00:00 12.2 4 Sudoeste 26 Sudoeste 0 -- -- 52
2020-01-14 23:00:00 12.6 12 Sudoeste 47 Sur 0 -- -- 50
2020-01-14 22:00:00 13 19 Sur 44 Sudeste 0 -- -- 52
2020-01-14 21:00:00 12.7 8 Sudeste 35 Sur 0 -- -- 55
2020-01-14 20:00:00 12.9 13 Sur 32 Sur 0 -- -- 53
2020-01-14 19:00:00 12.8 10 Sur 31 Sur 0 -- -- 52
2020-01-14 18:00:00 12.8 7 Este 28 Sudoeste 0 -- -- 51
2020-01-14 17:00:00 13.4 5 Oeste 27 Sur 0 -- -- 47
2020-01-14 16:00:00 15 13 Sur 32 Sur 0 -- -- 42
2020-01-14 15:00:00 15.7 7 Sur 28 Sur 0 -- -- 39
2020-01-14 14:00:00 15.5 7 Sudoeste 23 Sudeste 0 -- -- 43
2020-01-14 13:00:00 14.8 7 Sudoeste 26 Oeste 0 -- -- 46
2020-01-14 12:00:00 13.9 8 Oeste 24 Oeste 0 -- -- 51
2020-01-14 11:00:00 12.6 3 Noroeste 18 Sudoeste 0 -- -- 59
2020-01-14 10:00:00 11.4 2 Este 10 Sudoeste 0 -- -- 61
2020-01-14 09:00:00 11.3 5 Sudoeste 19 Sur 0 -- -- 61
2020-01-14 08:00:00 11.4 5 Oeste 28 Sudoeste 0 -- -- 60
2020-01-14 07:00:00 12 10 Sudoeste 25 Oeste 0 -- -- 57
2020-01-14 06:00:00 11.7 6 Sur 17 Oeste 0 -- -- 57
2020-01-14 05:00:00 12.1 3 Oeste 33 Sudeste 0 -- -- 55
2020-01-14 04:00:00 12.2 11 Sur 32 Sur 0 -- -- 55
2020-01-14 03:00:00 12.4 13 Sudoeste 37 Oeste 0 -- -- 56
2020-01-14 02:00:00 12.2 8 Sudoeste 41 Oeste 0 -- -- 56
2020-01-14 01:00:00 12.1 13 Sudoeste 24 Sudoeste 0 -- -- 56
2020-01-14 00:00:00 11.8 5 Sudoeste 27 Sudoeste 0 -- -- 53
2020-01-13 23:00:00 12.2 11 Oeste 26 Oeste 0 -- -- 53
2020-01-13 22:00:00 11.2 4 Norte 14 Norte 0 -- -- 53
2020-01-13 21:00:00 11 4 Este 16 Sur 0 -- -- 60
2020-01-13 20:00:00 9.6 6 Sur 12 Sur 0 -- -- 60
2020-01-13 19:00:00 9.9 6 Sur 14 Sur 0 -- -- 58
2020-01-13 18:00:00 10.6 8 Sur 13 Sur 0 -- -- 57
2020-01-13 17:00:00 11.4 6 Sur 11 Sur 0 -- -- 58
2020-01-13 16:00:00 14.4 7 Sudoeste 17 Sudoeste 0 -- -- 47
2020-01-13 15:00:00 14.1 11 Oeste 22 Sudoeste 0 -- -- 49
2020-01-13 14:00:00 13.6 10 Oeste 22 Noroeste 0 -- -- 51
2020-01-13 13:00:00 14 5 Sur 12 Sudoeste 0 -- -- 55
2020-01-13 12:00:00 12.6 4 Sudoeste 14 Sudoeste 0 -- -- 57
2020-01-13 11:00:00 10.3 10 Sur 16 Sudoeste 0 -- -- 65
2020-01-13 10:00:00 9.1 9 Sudoeste 16 Sudoeste 0 -- -- 72
2020-01-13 09:00:00 7.6 12 Sur 17 Sur 0 -- -- 71
2020-01-13 08:00:00 7.6 11 Sur 15 Sudoeste 0 -- -- 71
2020-01-13 07:00:00 7.1 9 Sur 18 Sur 0 -- -- 71
2020-01-13 06:00:00 7.7 10 Sur 13 Sur 0 -- -- 72
2020-01-13 05:00:00 8.7 9 Sudoeste 14 Sudoeste 0 -- -- 72
2020-01-13 04:00:00 8.5 12 Sur 15 Sudoeste 0 -- -- 70
2020-01-13 03:00:00 8.1 9 Sur 18 Sur 0 -- -- 65
2020-01-13 02:00:00 7.8 8 Sur 12 Sur 0 -- -- 62
2020-01-13 01:00:00 7.7 7 Sur 11 Sur 0 -- -- 72
2020-01-13 00:00:00 7.6 7 Sur 12 Sur 0 -- -- 74
2020-01-12 23:00:00 7.4 8 Sur 13 Sur 0 -- -- 73
2020-01-12 22:00:00 7.6 10 Sur 13 Sur 0 -- -- 71
2020-01-12 21:00:00 8 6 Sur 9 Sur 0 -- -- 69
2020-01-12 20:00:00 8.9 7 Sur 11 Sur 0 -- -- 66
2020-01-12 19:00:00 9.1 8 Sur 10 Sur 0 -- -- 62
2020-01-12 18:00:00 9.6 8 Sur 12 Sudeste 0 -- -- 60
2020-01-12 17:00:00 10.6 6 Sur 12 Nordeste 0 -- -- 56
2020-01-12 16:00:00 12.8 6 Nordeste 13 Nordeste 0 -- -- 47
2020-01-12 15:00:00 12.9 7 Nordeste 15 Norte 0 -- -- 47
2020-01-12 14:00:00 12.8 7 Nordeste 15 Norte 0 -- -- 47
2020-01-12 13:00:00 12.3 5 Norte 17 Norte 0 -- -- 50
2020-01-12 12:00:00 11.7 7 Norte 19 Norte 0 -- -- 51
2020-01-12 11:00:00 11.4 9 Norte 20 Norte 0 -- -- 52
2020-01-12 10:00:00 11.5 12 Norte 24 Norte 0 -- -- 54
2020-01-12 09:00:00 10.4 2 Nordeste 15 Norte 0 -- -- 57
2020-01-12 08:00:00 9.8 3 Norte 10 Nordeste 0 -- -- 61
2020-01-12 07:00:00 9.1 5 Sur 10 Sur 0 -- -- 61
2020-01-12 06:00:00 9.9 3 Sur 18 Noroeste 0 -- -- 57
2020-01-12 05:00:00 10 3 Nordeste 10 Sur 0 -- -- 60
2020-01-12 04:00:00 10 4 Sudeste 9 Este 0 -- -- 59
2020-01-12 03:00:00 9.6 4 Sudeste 18 Este 0 -- -- 57
2020-01-12 02:00:00 9.7 4 Sudeste 12 Este 0 -- -- 59
2020-01-12 01:00:00 9.8 6 Sudeste 13 Sudeste 0 -- -- 59
2020-01-12 00:00:00 10 5 Sudeste 13 Este 0 -- -- 57
2020-01-11 23:00:00 10.6 7 Sudeste 17 Sudeste 0 -- -- 55
2020-01-11 22:00:00 10.6 7 Sudeste 22 Sudeste 0 -- -- 53
2020-01-11 21:00:00 11.1 8 Este 22 Este 0 -- -- 52
2020-01-11 20:00:00 11.2 11 Nordeste 26 Nordeste 0 -- -- 51
2020-01-11 19:00:00 11.3 11 Nordeste 29 Nordeste 0 -- -- 51
2020-01-11 18:00:00 11.4 15 Nordeste 28 Nordeste 0 -- -- 52
2020-01-11 17:00:00 11.7 18 Nordeste 33 Nordeste 0 -- -- 54
2020-01-11 16:00:00 12.1 18 Nordeste 34 Nordeste 0 -- -- 50
2020-01-11 15:00:00 11.9 21 Nordeste 47 Nordeste 0 -- -- 52
2020-01-11 14:00:00 11.9 24 Nordeste 47 Nordeste 0 -- -- 51
2020-01-11 13:00:00 12.1 27 Nordeste 46 Nordeste 0 -- -- 45
2020-01-11 12:00:00 12.2 21 Nordeste 38 Nordeste 0 -- -- 48
2020-01-11 11:00:00 12 19 Nordeste 40 Nordeste 0 -- -- 50
2020-01-11 10:00:00 11.8 15 Nordeste 39 Nordeste 0 -- -- 52
2020-01-11 09:00:00 11.9 23 Nordeste 44 Nordeste 0 -- -- 53
2020-01-11 08:00:00 12 26 Nordeste 42 Nordeste 0 -- -- 57
2020-01-11 07:00:00 12.4 24 Nordeste 45 Nordeste 0 -- -- 56
2020-01-11 06:00:00 12.4 29 Nordeste 48 Nordeste 0 -- -- 56
2020-01-11 05:00:00 12.3 20 Nordeste 46 Nordeste 0 -- -- 57
2020-01-11 04:00:00 12.5 28 Nordeste 44 Nordeste 0 -- -- 55
2020-01-11 03:00:00 12.7 26 Nordeste 48 Nordeste 0 -- -- 54
2020-01-11 02:00:00 12.9 29 Nordeste 55 Nordeste 0 -- -- 49
2020-01-11 01:00:00 13 28 Nordeste 45 Nordeste 0 -- -- 55
2020-01-11 00:00:00 12.8 24 Nordeste 50 Nordeste 0 -- -- 50
2020-01-10 23:00:00 12.9 31 Nordeste 55 Nordeste 0 -- -- 58
2020-01-10 22:00:00 13.2 27 Nordeste 52 Nordeste 0.2 -- -- 55
2020-01-10 21:00:00 12.5 13 Este 32 Este 0 -- -- 53
2020-01-10 20:00:00 12.7 14 Este 32 Este 0 -- -- 54
2020-01-10 19:00:00 11.8 9 Este 27 Sudeste 0 -- -- 58
2020-01-10 18:00:00 11.3 13 Este 35 Nordeste 0 -- -- 70
2020-01-10 17:00:00 11 9 Este 23 Sudeste 1 -- -- 74
2020-01-10 16:00:00 11.1 6 Sudeste 19 Este 1 -- -- 75
2020-01-10 15:00:00 11.4 7 Este 19 Nordeste 0.4 -- -- 76
2020-01-10 14:00:00 11.5 16 Nordeste 30 Nordeste 0.4 -- -- 73
2020-01-10 13:00:00 12.4 10 Nordeste 22 Nordeste 0 -- -- 62
2020-01-10 12:00:00 13 13 Nordeste 22 Nordeste 0 -- -- 64
2020-01-10 11:00:00 13 8 Nordeste 12 Nordeste 0 -- -- 61
2020-01-10 10:00:00 12 2 Sur 9 Sur 0 -- -- 72
2020-01-10 09:00:00 10.4 9 Sur 12 Sur 0 -- -- 73
2020-01-10 08:00:00 9.3 6 Sur 10 Sur 0 -- -- 73
2020-01-10 07:00:00 9.9 6 Sur 12 Sur 0 -- -- 72
2020-01-10 06:00:00 9.4 8 Sur 13 Sur 0 -- -- 71
2020-01-10 05:00:00 9.6 11 Sur 15 Sudoeste 0 -- -- 69
2020-01-10 04:00:00 9.6 10 Sur 15 Sur 0 -- -- 66
2020-01-10 03:00:00 9.7 12 Sur 15 Sur 0 -- -- 63
2020-01-10 02:00:00 10.1 8 Sur 16 Sur 0 -- -- 61
2020-01-10 01:00:00 11.6 7 Sur 20 Sudeste 0 -- -- 55
2020-01-10 00:00:00 11.5 6 Sudeste 21 Sudeste 0 -- -- 58
2020-01-09 23:00:00 10.3 6 Sudeste 15 Sur 0 -- -- 61
2020-01-09 22:00:00 9.6 10 Sudoeste 14 Sur 0 -- -- 62
2020-01-09 21:00:00 9.7 11 Sur 17 Sudoeste 0 -- -- 65
2020-01-09 20:00:00 9.5 11 Sur 14 Sur 0 -- -- 66
2020-01-09 19:00:00 10 8 Sur 12 Sur 0 -- -- 68
2020-01-09 18:00:00 10.5 8 Sur 12 Sur 0 -- -- 62
2020-01-09 17:00:00 13.1 3 Sudoeste 7 Sur 0 -- -- 59
2020-01-09 16:00:00 12.6 4 Sur 7 Sur 0 -- -- 60
2020-01-09 15:00:00 14 0 Calma 7 Norte 0 -- -- 52
2020-01-09 14:00:00 13.9 3 Oeste 9 Oeste 0 -- -- 54
2020-01-09 13:00:00 13.5 3 Oeste 9 Oeste 0 -- -- 56
2020-01-09 12:00:00 11.8 4 Sur 12 Sudoeste 0 -- -- 65
2020-01-09 11:00:00 10.3 11 Sur 14 Sur 0 -- -- 67
2020-01-09 10:00:00 9.6 10 Sur 14 Sur 0 -- -- 64
2020-01-09 09:00:00 8.6 4 Sudeste 13 Sur 0 -- -- 67
2020-01-09 08:00:00 8.5 6 Sur 12 Sur 0 -- -- 66
2020-01-09 07:00:00 8.1 8 Sur 14 Sur 0 -- -- 69
2020-01-09 06:00:00 7.9 12 Sur 14 Sur 0 -- -- 70
2020-01-09 05:00:00 7.9 12 Sur 14 Sudoeste 0 -- -- 72
2020-01-09 04:00:00 8.1 11 Sur 14 Sur 0 -- -- 72
2020-01-09 03:00:00 8.1 12 Sur 15 Sur 0 -- -- 73
2020-01-09 02:00:00 8.5 10 Sur 14 Sur 0 -- -- 74
2020-01-09 01:00:00 8.5 10 Sur 15 Sur 0 -- -- 75
2020-01-09 00:00:00 8.7 11 Sur 14 Sur 0 -- -- 76
2020-01-08 23:00:00 9 9 Sur 14 Sur 0 -- -- 75
2020-01-08 22:00:00 9.3 7 Sur 13 Sur 0 -- -- 75
2020-01-08 21:00:00 9.4 9 Sur 13 Sur 0 -- -- 73
2020-01-08 20:00:00 10.5 6 Sur 12 Sur 0 -- -- 71
2020-01-08 19:00:00 11.9 6 Sudeste 16 Norte 0 -- -- 68
2020-01-08 18:00:00 13.1 5 Este 17 Nordeste 0 -- -- 67
2020-01-08 17:00:00 13.7 12 Nordeste 23 Nordeste 0 -- -- 66
2020-01-08 16:00:00 14.3 11 Nordeste 24 Nordeste 0 -- -- 63
2020-01-08 15:00:00 13.6 11 Nordeste 21 Nordeste 0 -- -- 64
2020-01-08 14:00:00 13.4 9 Nordeste 23 Nordeste 0 -- -- 61
2020-01-08 13:00:00 13.8 11 Nordeste 27 Nordeste 0 -- -- 59
2020-01-08 12:00:00 13.7 13 Nordeste 26 Este 0 -- -- 59
2020-01-08 11:00:00 13.6 10 Este 22 Nordeste 0 -- -- 58
2020-01-08 10:00:00 12.2 6 Este 16 Este 0 -- -- 59
2020-01-08 09:00:00 11.2 6 Sudeste 20 Este 0 -- -- 62
2020-01-08 08:00:00 10.8 7 Sudeste 14 Sudeste 0 -- -- 73
2020-01-08 07:00:00 10 8 Sudeste 13 Sudeste 0 -- -- 73
2020-01-08 06:00:00 10.1 7 Sudeste 12 Sur 0 -- -- 73
2020-01-08 05:00:00 10.2 8 Sudeste 11 Sudeste 0 -- -- 72
2020-01-08 04:00:00 10.3 6 Sur 10 Sur 0 -- -- 69
2020-01-08 03:00:00 8.8 10 Sur 13 Sur 0 -- -- 65
2020-01-08 02:00:00 8.9 10 Sur 14 Sur 0 -- -- 66
2020-01-08 01:00:00 8.3 9 Sur 14 Sur 0 -- -- 69
2020-01-08 00:00:00 8.1 10 Sur 13 Sur 0 -- -- 70
2020-01-07 23:00:00 8.4 11 Sur 13 Sur 0 -- -- 71
2020-01-07 22:00:00 8.3 9 Sur 13 Sur 0 -- -- 73
2020-01-07 21:00:00 8.3 10 Sur 13 Sur 0 -- -- 72
2020-01-07 20:00:00 8.4 11 Sur 14 Sur 0 -- -- 72
2020-01-07 19:00:00 9.6 8 Sur 11 Sudeste 0 -- -- 70
2020-01-07 18:00:00 10.2 7 Sur 10 Sudeste 0 -- -- 67
2020-01-07 17:00:00 12.1 4 Este 18 Norte 0 -- -- 62
2020-01-07 16:00:00 13 7 Norte 21 Noroeste 0 -- -- 61
2020-01-07 15:00:00 12.8 13 Norte 17 Norte 0 -- -- 64
2020-01-07 14:00:00 13 7 Norte 13 Norte 0 -- -- 66
2020-01-07 13:00:00 13.2 5 Norte 11 Norte 0 -- -- 65
2020-01-07 12:00:00 12.9 8 Norte 18 Norte 0 -- -- 67
2020-01-07 11:00:00 12.8 12 Norte 19 Norte 0 -- -- 69
2020-01-07 10:00:00 12.9 15 Norte 21 Norte 0 -- -- 69
2020-01-07 09:00:00 12.9 11 Norte 22 Norte 0 -- -- 67
2020-01-07 08:00:00 13.1 14 Norte 20 Norte 0 -- -- 67
2020-01-07 07:00:00 13 15 Norte 20 Norte 0 -- -- 68
2020-01-07 06:00:00 11.3 5 Sur 12 Sudeste 0 -- -- 68
2020-01-07 05:00:00 12.3 3 Sudeste 8 Nordeste 0 -- -- 64
2020-01-07 04:00:00 12.4 4 Sudeste 19 Norte 0 -- -- 64
2020-01-07 03:00:00 13.1 14 Norte 23 Norte 0 -- -- 68
2020-01-07 02:00:00 13.1 15 Norte 21 Norte 0 -- -- 68
2020-01-07 01:00:00 13 13 Norte 21 Norte 0 -- -- 65
2020-01-07 00:00:00 13.1 12 Norte 19 Norte 0 -- -- 65
2020-01-06 23:00:00 13.1 12 Norte 17 Norte 0 -- -- 65
2020-01-06 22:00:00 12.3 3 Noroeste 16 Norte 0 -- -- 64
2020-01-06 21:00:00 13.1 11 Norte 18 Norte 0 -- -- 63
2020-01-06 20:00:00 13.1 11 Norte 17 Norte 0 -- -- 62
2020-01-06 19:00:00 12.5 3 Este 12 Este 0 -- -- 63
2020-01-06 18:00:00 12.3 5 Sur 10 Sudeste 0 -- -- 62
2020-01-06 17:00:00 13.1 4 Sur 9 Sudeste 0 -- -- 59
2020-01-06 16:00:00 14.1 5 Nordeste 14 Nordeste 0 -- -- 55
2020-01-06 15:00:00 13.7 4 Nordeste 13 Norte 0 -- -- 56
2020-01-06 14:00:00 13.8 9 Norte 17 Norte 0 -- -- 55
2020-01-06 13:00:00 13.8 8 Norte 13 Norte 0 -- -- 55
2020-01-06 12:00:00 13.9 5 Norte 14 Norte 0 -- -- 59
2020-01-06 11:00:00 13.7 7 Norte 19 Norte 0 -- -- 67
2020-01-06 10:00:00 13.4 12 Norte 24 Norte 0 -- -- 66